sensor_id;sensor_type;location;lat;lon;timestamp;temperature;humidity
5924;DHT22;2987;50.884;14.818;2023-05-28T00:00:17;7.30;99.90
5924;DHT22;2987;50.884;14.818;2023-05-28T00:02:46;7.50;99.90
5924;DHT22;2987;50.884;14.818;2023-05-28T00:05:12;7.60;99.90
5924;DHT22;2987;50.884;14.818;2023-05-28T00:07:37;7.30;99.90
5924;DHT22;2987;50.884;14.818;2023-05-28T00:10:05;7.60;99.90
5924;DHT22;2987;50.884;14.818;2023-05-28T00:12:31;7.30;99.90
5924;DHT22;2987;50.884;14.818;2023-05-28T00:14:57;7.60;99.90
5924;DHT22;2987;50.884;14.818;2023-05-28T00:17:23;7.30;99.90
5924;DHT22;2987;50.884;14.818;2023-05-28T00:19:49;7.40;99.90
5924;DHT22;2987;50.884;14.818;2023-05-28T00:22:15;7.30;99.90
5924;DHT22;2987;50.884;14.818;2023-05-28T00:24:41;7.30;99.90
5924;DHT22;2987;50.884;14.818;2023-05-28T00:27:07;7.00;99.90
5924;DHT22;2987;50.884;14.818;2023-05-28T00:29:33;7.00;99.90
5924;DHT22;2987;50.884;14.818;2023-05-28T00:31:59;7.10;99.90
5924;DHT22;2987;50.884;14.818;2023-05-28T00:34:26;7.00;99.90
5924;DHT22;2987;50.884;14.818;2023-05-28T00:36:52;7.00;99.90
5924;DHT22;2987;50.884;14.818;2023-05-28T00:39:19;7.00;99.90
5924;DHT22;2987;50.884;14.818;2023-05-28T00:41:45;6.70;99.90
5924;DHT22;2987;50.884;14.818;2023-05-28T00:44:12;6.70;99.90
5924;DHT22;2987;50.884;14.818;2023-05-28T00:46:41;6.80;99.90
5924;DHT22;2987;50.884;14.818;2023-05-28T00:49:09;6.90;99.90
5924;DHT22;2987;50.884;14.818;2023-05-28T00:51:36;6.70;99.90
5924;DHT22;2987;50.884;14.818;2023-05-28T00:54:03;6.70;99.90
5924;DHT22;2987;50.884;14.818;2023-05-28T00:56:30;6.70;99.90
5924;DHT22;2987;50.884;14.818;2023-05-28T00:58:58;6.70;99.90
5924;DHT22;2987;50.884;14.818;2023-05-28T01:01:26;6.70;99.90
5924;DHT22;2987;50.884;14.818;2023-05-28T01:03:53;6.60;99.90
5924;DHT22;2987;50.884;14.818;2023-05-28T01:06:21;6.90;99.90
5924;DHT22;2987;50.884;14.818;2023-05-28T01:08:48;6.80;99.90
5924;DHT22;2987;50.884;14.818;2023-05-28T01:11:17;6.50;99.90
5924;DHT22;2987;50.884;14.818;2023-05-28T01:13:45;6.60;99.90
5924;DHT22;2987;50.884;14.818;2023-05-28T01:16:12;6.40;99.90
5924;DHT22;2987;50.884;14.818;2023-05-28T01:18:40;6.50;99.90
5924;DHT22;2987;50.884;14.818;2023-05-28T01:21:08;6.40;99.90
5924;DHT22;2987;50.884;14.818;2023-05-28T01:23:51;6.40;99.90
5924;DHT22;2987;50.884;14.818;2023-05-28T01:26:18;6.50;99.90
5924;DHT22;2987;50.884;14.818;2023-05-28T01:28:45;6.40;99.90
5924;DHT22;2987;50.884;14.818;2023-05-28T01:31:12;6.60;99.90
5924;DHT22;2987;50.884;14.818;2023-05-28T01:33:39;6.40;99.90
5924;DHT22;2987;50.884;14.818;2023-05-28T01:36:16;6.60;99.90
5924;DHT22;2987;50.884;14.818;2023-05-28T01:38:47;6.40;99.90
5924;DHT22;2987;50.884;14.818;2023-05-28T01:41:15;6.40;99.90
5924;DHT22;2987;50.884;14.818;2023-05-28T01:43:42;6.50;99.90
5924;DHT22;2987;50.884;14.818;2023-05-28T01:46:09;6.40;99.90
5924;DHT22;2987;50.884;14.818;2023-05-28T01:48:36;6.40;99.90
5924;DHT22;2987;50.884;14.818;2023-05-28T01:51:03;6.20;99.90
5924;DHT22;2987;50.884;14.818;2023-05-28T01:53:31;6.20;99.90
5924;DHT22;2987;50.884;14.818;2023-05-28T01:55:57;6.50;99.90
5924;DHT22;2987;50.884;14.818;2023-05-28T01:58:23;6.20;99.90
5924;DHT22;2987;50.884;14.818;2023-05-28T02:01:03;6.50;99.90
5924;DHT22;2987;50.884;14.818;2023-05-28T02:03:33;6.20;99.90
5924;DHT22;2987;50.884;14.818;2023-05-28T02:05:59;6.30;99.90
5924;DHT22;2987;50.884;14.818;2023-05-28T02:08:25;6.10;99.90
5924;DHT22;2987;50.884;14.818;2023-05-28T02:10:52;6.30;99.90
5924;DHT22;2987;50.884;14.818;2023-05-28T02:13:18;6.10;99.90
5924;DHT22;2987;50.884;14.818;2023-05-28T02:18:38;6.10;99.90
5924;DHT22;2987;50.884;14.818;2023-05-28T02:21:07;6.10;99.90
5924;DHT22;2987;50.884;14.818;2023-05-28T02:23:33;6.00;99.90
5924;DHT22;2987;50.884;14.818;2023-05-28T02:25:59;6.10;99.90
5924;DHT22;2987;50.884;14.818;2023-05-28T02:28:26;5.90;99.90
5924;DHT22;2987;50.884;14.818;2023-05-28T02:30:52;5.80;99.90
5924;DHT22;2987;50.884;14.818;2023-05-28T02:33:18;5.90;99.90
5924;DHT22;2987;50.884;14.818;2023-05-28T02:35:45;6.00;99.90
5924;DHT22;2987;50.884;14.818;2023-05-28T02:38:11;6.10;99.90
5924;DHT22;2987;50.884;14.818;2023-05-28T02:40:37;5.70;99.90
5924;DHT22;2987;50.884;14.818;2023-05-28T02:43:03;5.90;99.90
5924;DHT22;2987;50.884;14.818;2023-05-28T02:45:29;5.80;99.90
5924;DHT22;2987;50.884;14.818;2023-05-28T02:47:55;5.80;99.90
5924;DHT22;2987;50.884;14.818;2023-05-28T02:50:22;5.80;99.90
5924;DHT22;2987;50.884;14.818;2023-05-28T02:53:06;5.80;99.90
5924;DHT22;2987;50.884;14.818;2023-05-28T02:55:32;5.80;99.90
5924;DHT22;2987;50.884;14.818;2023-05-28T02:57:58;5.60;99.90
5924;DHT22;2987;50.884;14.818;2023-05-28T03:00:45;5.70;99.90
5924;DHT22;2987;50.884;14.818;2023-05-28T03:03:11;5.80;99.90
5924;DHT22;2987;50.884;14.818;2023-05-28T03:05:38;5.80;99.90
5924;DHT22;2987;50.884;14.818;2023-05-28T03:08:04;5.60;99.90
5924;DHT22;2987;50.884;14.818;2023-05-28T03:10:30;5.70;99.90
5924;DHT22;2987;50.884;14.818;2023-05-28T03:12:56;5.80;99.90
5924;DHT22;2987;50.884;14.818;2023-05-28T03:15:22;5.60;99.90
5924;DHT22;2987;50.884;14.818;2023-05-28T03:17:53;5.80;99.90
5924;DHT22;2987;50.884;14.818;2023-05-28T03:20:22;5.80;99.90
5924;DHT22;2987;50.884;14.818;2023-05-28T03:22:55;5.70;99.90
5924;DHT22;2987;50.884;14.818;2023-05-28T03:25:23;5.80;99.90
5924;DHT22;2987;50.884;14.818;2023-05-28T03:27:51;5.80;99.90
5924;DHT22;2987;50.884;14.818;2023-05-28T03:30:17;5.70;99.90
5924;DHT22;2987;50.884;14.818;2023-05-28T03:32:48;5.80;99.90
5924;DHT22;2987;50.884;14.818;2023-05-28T03:35:15;5.60;99.90
5924;DHT22;2987;50.884;14.818;2023-05-28T03:37:42;5.70;99.90
5924;DHT22;2987;50.884;14.818;2023-05-28T03:40:08;5.80;99.90
5924;DHT22;2987;50.884;14.818;2023-05-28T03:42:35;5.70;99.90
5924;DHT22;2987;50.884;14.818;2023-05-28T03:45:02;5.80;99.90
5924;DHT22;2987;50.884;14.818;2023-05-28T03:47:28;5.80;99.90
5924;DHT22;2987;50.884;14.818;2023-05-28T03:49:57;5.80;99.90
5924;DHT22;2987;50.884;14.818;2023-05-28T03:52:26;5.70;99.90
5924;DHT22;2987;50.884;14.818;2023-05-28T03:54:53;5.80;99.90
5924;DHT22;2987;50.884;14.818;2023-05-28T03:57:19;5.80;99.90
5924;DHT22;2987;50.884;14.818;2023-05-28T03:59:45;5.90;99.90
5924;DHT22;2987;50.884;14.818;2023-05-28T04:02:11;5.80;99.90
5924;DHT22;2987;50.884;14.818;2023-05-28T04:04:37;5.70;99.90
5924;DHT22;2987;50.884;14.818;2023-05-28T04:07:04;5.90;99.90
5924;DHT22;2987;50.884;14.818;2023-05-28T04:09:30;5.90;99.90
5924;DHT22;2987;50.884;14.818;2023-05-28T04:11:55;6.10;99.90
5924;DHT22;2987;50.884;14.818;2023-05-28T04:14:21;5.90;99.90
5924;DHT22;2987;50.884;14.818;2023-05-28T04:16:48;6.00;99.90
5924;DHT22;2987;50.884;14.818;2023-05-28T04:19:14;6.00;99.90
5924;DHT22;2987;50.884;14.818;2023-05-28T04:21:40;6.10;99.90
5924;DHT22;2987;50.884;14.818;2023-05-28T04:24:06;5.90;99.90
5924;DHT22;2987;50.884;14.818;2023-05-28T04:26:32;6.00;99.90
5924;DHT22;2987;50.884;14.818;2023-05-28T04:28:59;6.10;99.90
5924;DHT22;2987;50.884;14.818;2023-05-28T04:31:26;6.40;99.90
5924;DHT22;2987;50.884;14.818;2023-05-28T04:33:53;6.40;99.90
5924;DHT22;2987;50.884;14.818;2023-05-28T04:36:20;6.40;99.90
5924;DHT22;2987;50.884;14.818;2023-05-28T04:38:46;6.50;99.90
5924;DHT22;2987;50.884;14.818;2023-05-28T04:41:13;6.70;99.90
5924;DHT22;2987;50.884;14.818;2023-05-28T04:43:41;6.70;99.90
5924;DHT22;2987;50.884;14.818;2023-05-28T04:46:07;7.30;99.90
5924;DHT22;2987;50.884;14.818;2023-05-28T04:48:35;7.60;99.90
5924;DHT22;2987;50.884;14.818;2023-05-28T04:51:01;7.70;99.90
5924;DHT22;2987;50.884;14.818;2023-05-28T04:53:29;7.70;99.90
5924;DHT22;2987;50.884;14.818;2023-05-28T04:56:00;7.50;99.90
5924;DHT22;2987;50.884;14.818;2023-05-28T04:58:26;7.50;99.90
5924;DHT22;2987;50.884;14.818;2023-05-28T05:00:54;7.40;99.90
5924;DHT22;2987;50.884;14.818;2023-05-28T05:03:21;7.60;99.90
5924;DHT22;2987;50.884;14.818;2023-05-28T05:05:47;7.90;99.90
5924;DHT22;2987;50.884;14.818;2023-05-28T05:08:13;7.80;99.90
5924;DHT22;2987;50.884;14.818;2023-05-28T05:10:41;8.00;99.90
5924;DHT22;2987;50.884;14.818;2023-05-28T05:13:08;8.30;99.90
5924;DHT22;2987;50.884;14.818;2023-05-28T05:15:34;8.20;99.90
5924;DHT22;2987;50.884;14.818;2023-05-28T05:18:00;8.40;99.90
5924;DHT22;2987;50.884;14.818;2023-05-28T05:20:27;8.30;99.90
5924;DHT22;2987;50.884;14.818;2023-05-28T05:22:53;8.40;99.90
5924;DHT22;2987;50.884;14.818;2023-05-28T05:25:19;8.60;99.90
5924;DHT22;2987;50.884;14.818;2023-05-28T05:27:49;8.60;99.90
5924;DHT22;2987;50.884;14.818;2023-05-28T05:30:17;8.60;99.90
5924;DHT22;2987;50.884;14.818;2023-05-28T05:32:43;8.50;99.90
5924;DHT22;2987;50.884;14.818;2023-05-28T05:37:57;8.90;99.90
5924;DHT22;2987;50.884;14.818;2023-05-28T05:40:23;8.90;99.90
5924;DHT22;2987;50.884;14.818;2023-05-28T05:42:48;9.10;99.90
5924;DHT22;2987;50.884;14.818;2023-05-28T05:45:14;9.30;99.90
5924;DHT22;2987;50.884;14.818;2023-05-28T05:47:40;9.30;99.90
5924;DHT22;2987;50.884;14.818;2023-05-28T05:50:07;9.50;99.90
5924;DHT22;2987;50.884;14.818;2023-05-28T05:52:33;9.70;99.90
5924;DHT22;2987;50.884;14.818;2023-05-28T05:54:59;9.70;99.90
5924;DHT22;2987;50.884;14.818;2023-05-28T05:57:24;9.90;99.90
5924;DHT22;2987;50.884;14.818;2023-05-28T05:59:53;9.90;99.90
5924;DHT22;2987;50.884;14.818;2023-05-28T06:02:20;10.00;99.90
5924;DHT22;2987;50.884;14.818;2023-05-28T06:04:46;10.10;99.90
5924;DHT22;2987;50.884;14.818;2023-05-28T06:07:22;10.20;99.90
5924;DHT22;2987;50.884;14.818;2023-05-28T06:10:03;10.50;99.90
5924;DHT22;2987;50.884;14.818;2023-05-28T06:12:33;11.00;99.90
5924;DHT22;2987;50.884;14.818;2023-05-28T06:14:59;11.40;99.90
5924;DHT22;2987;50.884;14.818;2023-05-28T06:17:26;11.70;99.90
5924;DHT22;2987;50.884;14.818;2023-05-28T06:19:52;11.70;99.90
5924;DHT22;2987;50.884;14.818;2023-05-28T06:22:18;12.10;99.90
5924;DHT22;2987;50.884;14.818;2023-05-28T06:24:44;12.30;99.90
5924;DHT22;2987;50.884;14.818;2023-05-28T06:27:12;12.60;99.90
5924;DHT22;2987;50.884;14.818;2023-05-28T06:29:38;12.90;99.90
5924;DHT22;2987;50.884;14.818;2023-05-28T06:32:04;13.40;99.90
5924;DHT22;2987;50.884;14.818;2023-05-28T06:34:32;13.80;99.90
5924;DHT22;2987;50.884;14.818;2023-05-28T06:36:58;14.20;99.90
5924;DHT22;2987;50.884;14.818;2023-05-28T06:39:25;14.60;99.90
5924;DHT22;2987;50.884;14.818;2023-05-28T06:41:52;15.00;99.90
5924;DHT22;2987;50.884;14.818;2023-05-28T06:44:28;15.30;99.90
5924;DHT22;2987;50.884;14.818;2023-05-28T06:46:56;15.60;99.90
5924;DHT22;2987;50.884;14.818;2023-05-28T06:49:22;15.90;99.90
5924;DHT22;2987;50.884;14.818;2023-05-28T06:51:48;16.10;99.90
5924;DHT22;2987;50.884;14.818;2023-05-28T06:54:14;16.50;99.90
5924;DHT22;2987;50.884;14.818;2023-05-28T06:56:40;17.00;99.90
5924;DHT22;2987;50.884;14.818;2023-05-28T06:59:26;17.30;99.90
5924;DHT22;2987;50.884;14.818;2023-05-28T07:02:10;17.50;99.90
5924;DHT22;2987;50.884;14.818;2023-05-28T07:07:20;17.90;99.90
5924;DHT22;2987;50.884;14.818;2023-05-28T07:09:47;18.30;99.90
5924;DHT22;2987;50.884;14.818;2023-05-28T07:12:13;18.60;99.90
5924;DHT22;2987;50.884;14.818;2023-05-28T07:14:44;18.90;99.90
5924;DHT22;2987;50.884;14.818;2023-05-28T07:17:11;19.00;99.90
5924;DHT22;2987;50.884;14.818;2023-05-28T07:19:38;18.70;99.90
5924;DHT22;2987;50.884;14.818;2023-05-28T07:22:04;18.70;99.90
5924;DHT22;2987;50.884;14.818;2023-05-28T07:24:31;19.10;99.90
5924;DHT22;2987;50.884;14.818;2023-05-28T07:26:56;19.50;99.90
5924;DHT22;2987;50.884;14.818;2023-05-28T07:29:23;19.80;99.90
5924;DHT22;2987;50.884;14.818;2023-05-28T07:31:49;20.10;99.90
5924;DHT22;2987;50.884;14.818;2023-05-28T07:34:17;20.00;99.90
5924;DHT22;2987;50.884;14.818;2023-05-28T07:36:45;19.70;99.90
5924;DHT22;2987;50.884;14.818;2023-05-28T07:39:12;19.60;99.90
5924;DHT22;2987;50.884;14.818;2023-05-28T07:41:39;19.80;99.90
5924;DHT22;2987;50.884;14.818;2023-05-28T07:44:12;20.20;99.90
5924;DHT22;2987;50.884;14.818;2023-05-28T07:46:38;20.30;99.90
5924;DHT22;2987;50.884;14.818;2023-05-28T07:49:10;20.50;99.90
5924;DHT22;2987;50.884;14.818;2023-05-28T07:51:42;20.70;99.90
5924;DHT22;2987;50.884;14.818;2023-05-28T07:54:12;20.70;99.90
5924;DHT22;2987;50.884;14.818;2023-05-28T07:56:39;21.00;99.90
5924;DHT22;2987;50.884;14.818;2023-05-28T07:59:09;21.40;99.90
5924;DHT22;2987;50.884;14.818;2023-05-28T08:01:37;21.60;99.90
5924;DHT22;2987;50.884;14.818;2023-05-28T08:04:04;21.90;99.90
5924;DHT22;2987;50.884;14.818;2023-05-28T08:06:34;21.80;99.90
5924;DHT22;2987;50.884;14.818;2023-05-28T08:09:03;21.60;99.90
5924;DHT22;2987;50.884;14.818;2023-05-28T08:11:29;21.90;99.90
5924;DHT22;2987;50.884;14.818;2023-05-28T08:13:55;22.20;99.90
5924;DHT22;2987;50.884;14.818;2023-05-28T08:16:21;22.50;99.90
5924;DHT22;2987;50.884;14.818;2023-05-28T08:19:07;22.50;99.90
5924;DHT22;2987;50.884;14.818;2023-05-28T08:21:33;22.60;99.90
5924;DHT22;2987;50.884;14.818;2023-05-28T08:23:58;22.70;99.90
5924;DHT22;2987;50.884;14.818;2023-05-28T08:26:25;22.20;99.90
5924;DHT22;2987;50.884;14.818;2023-05-28T08:28:51;22.10;99.90
5924;DHT22;2987;50.884;14.818;2023-05-28T08:31:17;22.30;99.90
5924;DHT22;2987;50.884;14.818;2023-05-28T08:34:03;22.70;98.60
5924;DHT22;2987;50.884;14.818;2023-05-28T08:36:29;22.80;97.70
5924;DHT22;2987;50.884;14.818;2023-05-28T08:38:55;22.80;97.30
5924;DHT22;2987;50.884;14.818;2023-05-28T08:41:21;22.90;96.80
5924;DHT22;2987;50.884;14.818;2023-05-28T08:43:48;23.10;99.00
5924;DHT22;2987;50.884;14.818;2023-05-28T08:46:15;23.50;95.50
5924;DHT22;2987;50.884;14.818;2023-05-28T08:49:03;23.60;96.10
5924;DHT22;2987;50.884;14.818;2023-05-28T08:51:32;23.80;94.20
5924;DHT22;2987;50.884;14.818;2023-05-28T08:53:59;23.80;95.00
5924;DHT22;2987;50.884;14.818;2023-05-28T08:56:28;23.80;95.20
5924;DHT22;2987;50.884;14.818;2023-05-28T08:58:55;23.20;93.30
5924;DHT22;2987;50.884;14.818;2023-05-28T09:01:21;23.50;91.60
5924;DHT22;2987;50.884;14.818;2023-05-28T09:04:07;23.50;92.20
5924;DHT22;2987;50.884;14.818;2023-05-28T09:06:42;23.40;91.20
5924;DHT22;2987;50.884;14.818;2023-05-28T09:09:08;23.30;91.60
5924;DHT22;2987;50.884;14.818;2023-05-28T09:11:35;23.40;89.10
5924;DHT22;2987;50.884;14.818;2023-05-28T09:14:10;23.20;90.30
5924;DHT22;2987;50.884;14.818;2023-05-28T09:16:40;23.20;91.20
5924;DHT22;2987;50.884;14.818;2023-05-28T09:19:08;22.80;86.80
5924;DHT22;2987;50.884;14.818;2023-05-28T09:21:34;22.90;89.60
5924;DHT22;2987;50.884;14.818;2023-05-28T09:24:05;23.10;89.10
5924;DHT22;2987;50.884;14.818;2023-05-28T09:26:54;23.20;88.60
5924;DHT22;2987;50.884;14.818;2023-05-28T09:29:27;23.00;86.10
5924;DHT22;2987;50.884;14.818;2023-05-28T09:31:58;23.00;85.60
5924;DHT22;2987;50.884;14.818;2023-05-28T09:34:30;22.90;91.10
5924;DHT22;2987;50.884;14.818;2023-05-28T09:37:01;23.00;87.60
5924;DHT22;2987;50.884;14.818;2023-05-28T09:39:27;23.20;87.80
5924;DHT22;2987;50.884;14.818;2023-05-28T09:42:09;23.10;90.00
5924;DHT22;2987;50.884;14.818;2023-05-28T09:44:38;23.20;89.50
5924;DHT22;2987;50.884;14.818;2023-05-28T09:47:12;23.30;90.00
5924;DHT22;2987;50.884;14.818;2023-05-28T09:49:42;23.40;79.70
5924;DHT22;2987;50.884;14.818;2023-05-28T09:52:18;23.50;85.30
5924;DHT22;2987;50.884;14.818;2023-05-28T09:54:54;23.80;88.80
5924;DHT22;2987;50.884;14.818;2023-05-28T09:59:53;24.30;88.30
5924;DHT22;2987;50.884;14.818;2023-05-28T10:02:27;24.40;82.00
5924;DHT22;2987;50.884;14.818;2023-05-28T10:04:54;24.80;78.00
5924;DHT22;2987;50.884;14.818;2023-05-28T10:07:25;24.10;81.20
5924;DHT22;2987;50.884;14.818;2023-05-28T10:09:53;24.10;85.90
5924;DHT22;2987;50.884;14.818;2023-05-28T10:12:24;23.80;78.40
5924;DHT22;2987;50.884;14.818;2023-05-28T10:14:51;23.50;82.30
5924;DHT22;2987;50.884;14.818;2023-05-28T10:17:17;23.40;80.30
5924;DHT22;2987;50.884;14.818;2023-05-28T10:19:45;23.40;79.60
5924;DHT22;2987;50.884;14.818;2023-05-28T10:22:13;23.90;83.40
5924;DHT22;2987;50.884;14.818;2023-05-28T10:24:39;24.20;83.40
5924;DHT22;2987;50.884;14.818;2023-05-28T10:27:06;24.40;79.10
5924;DHT22;2987;50.884;14.818;2023-05-28T10:29:41;24.20;80.50
5924;DHT22;2987;50.884;14.818;2023-05-28T10:32:08;24.40;81.20
5924;DHT22;2987;50.884;14.818;2023-05-28T10:34:36;24.40;83.10
5924;DHT22;2987;50.884;14.818;2023-05-28T10:37:05;24.70;80.20
5924;DHT22;2987;50.884;14.818;2023-05-28T10:39:39;24.60;81.90
5924;DHT22;2987;50.884;14.818;2023-05-28T10:42:09;24.60;79.00
5924;DHT22;2987;50.884;14.818;2023-05-28T10:45:06;24.40;82.70
5924;DHT22;2987;50.884;14.818;2023-05-28T10:47:34;24.60;80.50
5924;DHT22;2987;50.884;14.818;2023-05-28T10:50:11;23.90;82.70
5924;DHT22;2987;50.884;14.818;2023-05-28T10:52:38;23.90;88.90
5924;DHT22;2987;50.884;14.818;2023-05-28T10:55:08;24.40;84.40
5924;DHT22;2987;50.884;14.818;2023-05-28T10:57:39;24.70;79.00
5924;DHT22;2987;50.884;14.818;2023-05-28T11:00:07;24.90;83.00
5924;DHT22;2987;50.884;14.818;2023-05-28T11:02:42;24.60;82.20
5924;DHT22;2987;50.884;14.818;2023-05-28T11:05:09;24.60;80.60
5924;DHT22;2987;50.884;14.818;2023-05-28T11:07:38;24.60;80.10
5924;DHT22;2987;50.884;14.818;2023-05-28T11:10:07;24.90;81.60
5924;DHT22;2987;50.884;14.818;2023-05-28T11:12:36;25.10;81.50
5924;DHT22;2987;50.884;14.818;2023-05-28T11:15:04;25.00;79.00
5924;DHT22;2987;50.884;14.818;2023-05-28T11:17:37;25.10;77.80
5924;DHT22;2987;50.884;14.818;2023-05-28T11:20:22;25.10;78.60
5924;DHT22;2987;50.884;14.818;2023-05-28T11:22:51;25.00;79.30
5924;DHT22;2987;50.884;14.818;2023-05-28T11:25:18;25.00;79.30
5924;DHT22;2987;50.884;14.818;2023-05-28T11:27:48;24.90;78.00
5924;DHT22;2987;50.884;14.818;2023-05-28T11:30:17;24.90;81.60
5924;DHT22;2987;50.884;14.818;2023-05-28T11:32:45;24.90;79.10
5924;DHT22;2987;50.884;14.818;2023-05-28T11:35:12;25.00;82.70
5924;DHT22;2987;50.884;14.818;2023-05-28T11:37:40;24.50;80.40
5924;DHT22;2987;50.884;14.818;2023-05-28T11:40:08;24.60;80.70
5924;DHT22;2987;50.884;14.818;2023-05-28T11:42:37;24.90;79.40
5924;DHT22;2987;50.884;14.818;2023-05-28T11:45:04;24.70;77.20
5924;DHT22;2987;50.884;14.818;2023-05-28T11:47:34;24.60;77.80
5924;DHT22;2987;50.884;14.818;2023-05-28T11:50:06;24.70;79.50
5924;DHT22;2987;50.884;14.818;2023-05-28T11:52:32;24.90;78.60
5924;DHT22;2987;50.884;14.818;2023-05-28T11:54:59;24.80;79.00
5924;DHT22;2987;50.884;14.818;2023-05-28T11:57:29;24.90;82.50
5924;DHT22;2987;50.884;14.818;2023-05-28T12:00:04;25.00;78.50
5924;DHT22;2987;50.884;14.818;2023-05-28T12:02:53;25.00;76.80
5924;DHT22;2987;50.884;14.818;2023-05-28T12:05:20;25.30;79.10
5924;DHT22;2987;50.884;14.818;2023-05-28T12:07:47;25.40;77.10
5924;DHT22;2987;50.884;14.818;2023-05-28T12:10:17;25.50;76.60
5924;DHT22;2987;50.884;14.818;2023-05-28T12:12:49;25.40;76.60
5924;DHT22;2987;50.884;14.818;2023-05-28T12:15:17;25.50;76.20
5924;DHT22;2987;50.884;14.818;2023-05-28T12:17:45;25.40;79.00
5924;DHT22;2987;50.884;14.818;2023-05-28T12:20:31;25.40;75.60
5924;DHT22;2987;50.884;14.818;2023-05-28T12:23:13;24.80;77.00
5924;DHT22;2987;50.884;14.818;2023-05-28T12:25:48;24.90;75.90
5924;DHT22;2987;50.884;14.818;2023-05-28T12:28:17;24.80;79.10
5924;DHT22;2987;50.884;14.818;2023-05-28T12:30:47;25.20;78.20
5924;DHT22;2987;50.884;14.818;2023-05-28T12:33:16;25.30;77.60
5924;DHT22;2987;50.884;14.818;2023-05-28T12:35:42;25.30;76.70
5924;DHT22;2987;50.884;14.818;2023-05-28T12:38:08;25.40;80.10
5924;DHT22;2987;50.884;14.818;2023-05-28T12:40:35;25.30;78.80
5924;DHT22;2987;50.884;14.818;2023-05-28T12:43:01;25.40;78.30
5924;DHT22;2987;50.884;14.818;2023-05-28T12:45:27;25.10;76.80
5924;DHT22;2987;50.884;14.818;2023-05-28T12:47:53;25.40;76.90
5924;DHT22;2987;50.884;14.818;2023-05-28T12:50:20;25.60;76.30
5924;DHT22;2987;50.884;14.818;2023-05-28T12:52:49;25.70;76.50
5924;DHT22;2987;50.884;14.818;2023-05-28T12:55:16;25.70;76.50
5924;DHT22;2987;50.884;14.818;2023-05-28T12:57:41;25.60;76.30
5924;DHT22;2987;50.884;14.818;2023-05-28T13:00:08;25.30;76.50
5924;DHT22;2987;50.884;14.818;2023-05-28T13:02:37;25.50;76.80
5924;DHT22;2987;50.884;14.818;2023-05-28T13:05:03;25.60;77.20
5924;DHT22;2987;50.884;14.818;2023-05-28T13:07:30;25.70;75.50
5924;DHT22;2987;50.884;14.818;2023-05-28T13:09:56;25.50;76.50
5924;DHT22;2987;50.884;14.818;2023-05-28T13:12:22;25.40;76.00
5924;DHT22;2987;50.884;14.818;2023-05-28T13:14:47;25.50;76.90
5924;DHT22;2987;50.884;14.818;2023-05-28T13:17:13;25.30;78.90
5924;DHT22;2987;50.884;14.818;2023-05-28T13:19:39;25.30;82.90
5924;DHT22;2987;50.884;14.818;2023-05-28T13:22:05;25.30;77.20
5924;DHT22;2987;50.884;14.818;2023-05-28T13:24:33;25.30;79.10
5924;DHT22;2987;50.884;14.818;2023-05-28T13:26:59;25.40;79.70
5924;DHT22;2987;50.884;14.818;2023-05-28T13:29:26;25.40;79.40
5924;DHT22;2987;50.884;14.818;2023-05-28T13:31:52;25.30;80.00
5924;DHT22;2987;50.884;14.818;2023-05-28T13:34:18;25.40;82.30
5924;DHT22;2987;50.884;14.818;2023-05-28T13:36:43;24.70;81.50
5924;DHT22;2987;50.884;14.818;2023-05-28T13:39:09;24.70;79.80
5924;DHT22;2987;50.884;14.818;2023-05-28T13:41:35;24.80;79.10
5924;DHT22;2987;50.884;14.818;2023-05-28T13:44:01;24.80;80.80
5924;DHT22;2987;50.884;14.818;2023-05-28T13:46:27;24.80;79.00
5924;DHT22;2987;50.884;14.818;2023-05-28T13:48:54;24.80;78.80
5924;DHT22;2987;50.884;14.818;2023-05-28T13:51:20;24.70;77.80
5924;DHT22;2987;50.884;14.818;2023-05-28T13:53:47;24.80;77.00
5924;DHT22;2987;50.884;14.818;2023-05-28T13:56:16;24.80;79.00
5924;DHT22;2987;50.884;14.818;2023-05-28T13:58:42;24.80;79.10
5924;DHT22;2987;50.884;14.818;2023-05-28T14:01:08;24.80;79.10
5924;DHT22;2987;50.884;14.818;2023-05-28T14:03:33;24.70;77.30
5924;DHT22;2987;50.884;14.818;2023-05-28T14:06:00;24.40;79.60
5924;DHT22;2987;50.884;14.818;2023-05-28T14:08:26;24.50;78.50
5924;DHT22;2987;50.884;14.818;2023-05-28T14:10:52;24.50;76.90
5924;DHT22;2987;50.884;14.818;2023-05-28T14:13:18;24.40;80.20
5924;DHT22;2987;50.884;14.818;2023-05-28T14:15:44;24.50;78.90
5924;DHT22;2987;50.884;14.818;2023-05-28T14:18:11;24.80;79.10
5924;DHT22;2987;50.884;14.818;2023-05-28T14:20:37;24.80;77.90
5924;DHT22;2987;50.884;14.818;2023-05-28T14:23:03;24.70;79.10
5924;DHT22;2987;50.884;14.818;2023-05-28T14:25:30;24.60;81.10
5924;DHT22;2987;50.884;14.818;2023-05-28T14:27:56;24.30;78.80
5924;DHT22;2987;50.884;14.818;2023-05-28T14:30:23;24.30;80.70
5924;DHT22;2987;50.884;14.818;2023-05-28T14:32:49;24.10;78.10
5924;DHT22;2987;50.884;14.818;2023-05-28T14:35:15;23.80;80.30
5924;DHT22;2987;50.884;14.818;2023-05-28T14:37:41;23.70;78.10
5924;DHT22;2987;50.884;14.818;2023-05-28T14:40:07;23.50;79.00
5924;DHT22;2987;50.884;14.818;2023-05-28T14:44:59;23.70;80.50
5924;DHT22;2987;50.884;14.818;2023-05-28T14:47:25;23.70;79.40
5924;DHT22;2987;50.884;14.818;2023-05-28T14:49:51;23.80;81.30
5924;DHT22;2987;50.884;14.818;2023-05-28T14:52:23;23.80;80.60
5924;DHT22;2987;50.884;14.818;2023-05-28T14:54:50;23.80;77.50
5924;DHT22;2987;50.884;14.818;2023-05-28T14:57:21;23.80;78.50
5924;DHT22;2987;50.884;14.818;2023-05-28T18:19:56;18.60;92.20
5924;DHT22;2987;50.884;14.818;2023-05-28T18:22:22;18.40;94.80
5924;DHT22;2987;50.884;14.818;2023-05-28T18:24:50;18.20;93.60
5924;DHT22;2987;50.884;14.818;2023-05-28T18:27:15;18.10;92.50
5924;DHT22;2987;50.884;14.818;2023-05-28T18:29:41;18.00;93.20
5924;DHT22;2987;50.884;14.818;2023-05-28T18:32:07;17.90;93.30
5924;DHT22;2987;50.884;14.818;2023-05-28T18:34:33;17.80;93.30
5924;DHT22;2987;50.884;14.818;2023-05-28T18:39:25;17.60;92.80
5924;DHT22;2987;50.884;14.818;2023-05-28T18:41:53;17.50;92.80
5924;DHT22;2987;50.884;14.818;2023-05-28T18:44:19;17.30;93.60
5924;DHT22;2987;50.884;14.818;2023-05-28T18:46:45;17.30;93.60
5924;DHT22;2987;50.884;14.818;2023-05-28T18:49:11;17.20;94.40
5924;DHT22;2987;50.884;14.818;2023-05-28T18:51:37;17.00;95.50
5924;DHT22;2987;50.884;14.818;2023-05-28T18:54:04;16.90;95.70
5924;DHT22;2987;50.884;14.818;2023-05-28T18:56:30;16.70;96.30
5924;DHT22;2987;50.884;14.818;2023-05-28T18:58:56;16.60;96.40
5924;DHT22;2987;50.884;14.818;2023-05-28T19:01:27;16.50;98.80
5924;DHT22;2987;50.884;14.818;2023-05-28T19:03:53;16.30;98.60
5924;DHT22;2987;50.884;14.818;2023-05-28T19:06:20;16.20;98.80
5924;DHT22;2987;50.884;14.818;2023-05-28T19:08:47;16.00;98.90
5924;DHT22;2987;50.884;14.818;2023-05-28T19:11:13;15.90;99.90
5924;DHT22;2987;50.884;14.818;2023-05-28T19:13:39;15.80;99.90
5924;DHT22;2987;50.884;14.818;2023-05-28T19:16:06;15.70;99.90
5924;DHT22;2987;50.884;14.818;2023-05-28T19:18:32;15.60;99.90
5924;DHT22;2987;50.884;14.818;2023-05-28T19:20:58;15.50;99.90
5924;DHT22;2987;50.884;14.818;2023-05-28T19:23:24;15.30;99.90
5924;DHT22;2987;50.884;14.818;2023-05-28T19:25:50;15.20;99.90
5924;DHT22;2987;50.884;14.818;2023-05-28T19:28:16;15.10;99.90
5924;DHT22;2987;50.884;14.818;2023-05-28T19:30:42;15.00;99.90
5924;DHT22;2987;50.884;14.818;2023-05-28T19:33:08;14.80;99.90